Карточка аэропорта USHH

Внимание!
Информация на этой странице в стадии наполнения.
Если вы не увидели какой-то информации, или заметили неточность - пожалуйста сообщите нам!
Спасибо!
Команда RU-STAFF
Название аэропортаХанты-Мансийск
Название аэропорта (англ.)Khanty-Mansiysk
Превышение141 ft. (43 m.)
Координаты61°1.7039999999999', 69°5.1599999999999'
Высота перехода800m
Эшелон переходаFL050
Коды ответчика5150-5177
Зона ОрВДТюмень РПИ (USTV)
Данные METARUSHH 071000Z 23001MPS 9999 FEW003 M19/M21 Q1029 R06/450250 TEMPO 1000 HZ BKN002
Проноз погоды (TAF)USHH 070137Z 0703/0803 24003G12MPS 6000 -SN BKN005 OVC016 TEMPO 0703/0709 1000 SHSN BR BKN002 BKN010CB BECMG 0709/0710 9999 NSW FEW005 BKN016 TEMPO 0710/0718 5000 -SHSN FEW003 BKN016CB TEMPO 0718/0803 5000 -SHSN BR SCT002 BKN016CB
NOTAMshow/hide NOTAM
AWOS   TABLE

Информация о ВПП

ВПП Длина ВПП (м.) Покрытие Курс ВПП Частота ILS
242800Асфальтобетон238110.1
062800Асфальтобетон58111.9

Диспетчерские позиции

Позывной Наименование органа УВД Частота
USHH_TWRХантым-Вышка118.1
USHH_R_APPХантым-Круг120.4



Спутниковое изображение